首页
METAR-TAF:

METAR-TAF

机场 :

坦帕, 佛罗里达州, 美国

纬度: 27-51N, 经度: 082-30W, 海拔: 4米

当前天气观测

该预报发布于58分钟前的20:56 UTC
风速12节,风向西南
温度 29°C
湿度 62%
气压 1017 hPa
能見度: 16.1公里
少量云层高于17000英尺

METAR: KMCF 282056Z AUTO 22012KT 10SM FEW170 29/21 A3002 RMK AO2 SLP169 T02850207 55010 FZRANO $

时间: 17:54 (21:54 UTC)

预报

该预报发布于4小时和54分钟前的17:00 UTC
预报有效从28日的 17点(UTC)到 29日的 23点(UTC)
风速6节,风向多变
能见度10公里或以上
天空无云
成为
从 29日的 03点(UTC)到 29日的 04点(UTC)
风速6节,风向多变
能見度: 8000
散云层高于1200英尺
轻雾
成为
从 29日的 15点(UTC)到 29日的 16点(UTC)
风速10节,风向南转南东,有时为15节阵风
能见度10公里或以上
散云层高于2000英尺

TAF: KMCF 281700Z 2817/2923 VRB06KT 9999 SKC QNH2999INS BECMG 2903/2904 VRB06KT 8000 BR SCT012 QNH3006INS BECMG 2915/2916 15010G15KT 9999 NSW SCT020 QNH3010INS TX28/2820Z TN21/2912Z

超过4000个机场的气象观测和天气预报(METAR&TAF报告)。

可查询的气象台以黄色和红色小点在地图上表示。

将鼠标移到小点上方,可查看气象台名称。

然后点击查看天气观测和预报。

如需切换地图:点击带黑十字的绿色按钮放大地图;点击带横线的绿色按钮缩小地图;或者点击绿色箭头查看邻近地区的地图。


METAR-TAF: